Time;durP1;ratioP1;P1;durP2;ratioP2;P2;SDS_P1;SDS_P2;PMS_P1;PMS_P2;Temp;Humidity;BMP_temperature;BMP_pressure;BME280_temperature;BME280_humidity;BME280_pressure;Samples;Min_cycle;Max_cycle;Signal;HPM_P1;HPM_P2
2021/10/31 00:00:33;;;;;;;45.17;38.00;;;13.10;78.00;;;;;;4993299;28;20108;-72
2021/10/31 00:02:59;;;;;;;45.67;36.60;;;13.00;78.10;;;;;;4991947;28;20131;-72
2021/10/31 00:05:25;;;;;;;46.63;36.33;;;12.90;78.40;;;;;;4992261;28;20051;-72
2021/10/31 00:07:51;;;;;;;41.15;32.80;;;12.90;78.60;;;;;;4992030;28;20108;-72
2021/10/31 00:10:17;;;;;;;43.17;33.05;;;12.80;78.80;;;;;;4992426;28;20022;-72
2021/10/31 00:12:43;;;;;;;39.65;32.08;;;12.80;78.90;;;;;;4992103;28;20033;-72
2021/10/31 00:15:09;;;;;;;34.55;28.52;;;12.80;78.80;;;;;;4992533;28;20129;-72
2021/10/31 00:17:35;;;;;;;35.45;28.30;;;12.80;78.60;;;;;;4992090;28;20080;-72
2021/10/31 00:20:00;;;;;;;36.65;29.27;;;12.80;78.60;;;;;;4992261;28;20466;-72
2021/10/31 00:22:26;;;;;;;41.60;33.00;;;12.80;78.40;;;;;;4993529;28;20436;-72
2021/10/31 00:24:52;;;;;;;39.47;32.17;;;12.80;78.20;;;;;;4993569;28;20065;-72
2021/10/31 00:27:17;;;;;;;40.72;32.67;;;12.80;78.30;;;;;;4993637;28;20038;-72
2021/10/31 00:29:43;;;;;;;41.92;32.95;;;12.90;78.00;;;;;;4993389;28;20157;-72
2021/10/31 00:32:09;;;;;;;39.17;33.10;;;12.90;77.90;;;;;;4992571;28;20117;-72
2021/10/31 00:34:34;;;;;;;44.10;33.33;;;12.80;77.90;;;;;;4993331;28;20045;-72
2021/10/31 00:37:00;;;;;;;41.35;33.65;;;12.80;78.50;;;;;;4993249;28;20051;-72
2021/10/31 00:39:26;;;;;;;39.88;33.45;;;12.70;78.70;;;;;;4993218;28;20386;-71
2021/10/31 00:41:52;;;;;;;41.85;33.88;;;12.80;80.70;;;;;;4997111;28;20077;-73
2021/10/31 00:44:18;;;;;;;39.55;32.90;;;12.70;88.20;;;;;;4996317;28;20077;-71
2021/10/31 00:46:43;;;;;;;41.33;33.72;;;12.60;79.60;;;;;;4997717;28;20038;-72
2021/10/31 00:49:09;;;;;;;39.83;32.70;;;12.60;80.10;;;;;;4997140;28;20482;-72
2021/10/31 00:51:35;;;;;;;35.95;30.27;;;12.50;79.80;;;;;;4997552;28;20483;-73
2021/10/31 00:54:01;;;;;;;36.38;30.75;;;12.50;79.90;;;;;;4997496;28;20085;-72
2021/10/31 00:56:27;;;;;;;40.83;30.52;;;12.50;80.00;;;;;;4997174;28;20105;-72
2021/10/31 00:58:53;;;;;;;33.80;29.33;;;12.50;80.40;;;;;;4997291;28;20053;-72
2021/10/31 01:01:20;;;;;;;33.88;29.45;;;12.40;80.00;;;;;;4997343;28;20030;-72
2021/10/31 01:03:46;;;;;;;39.63;29.50;;;12.40;80.10;;;;;;4996836;28;20030;-72
2021/10/31 01:06:36;;;;;;;36.85;30.00;;;12.40;80.00;;;;;;4997233;28;20553;-72
2021/10/31 01:09:16;;;;;;;35.22;29.52;;;12.40;80.00;;;;;;4995366;28;20086;-72
2021/10/31 01:12:02;;;;;;;34.90;28.70;;;12.40;79.80;;;;;;4996862;28;20111;-73
2021/10/31 01:15:06;;;;;;;36.05;30.25;;;12.40;79.70;;;;;;4996971;28;20093;-72
2021/10/31 01:17:34;;;;;;;;;;;12.40;79.60;;;;;;4996375;28;20518;-72
2021/10/31 01:20:25;;;;;;;33.10;27.95;;;12.40;79.60;;;;;;4997046;28;19910;-72
2021/10/31 01:23:12;;;;;;;30.13;25.67;;;12.30;79.50;;;;;;4996816;28;20027;-72
2021/10/31 01:26:02;;;;;;;31.05;24.38;;;12.40;88.20;;;;;;4996796;28;20027;-72
2021/10/31 01:28:59;;;;;;;32.53;24.75;;;12.40;93.60;;;;;;4994854;28;20045;-72
2021/10/31 01:31:30;;;;;;;27.40;23.80;;;12.40;94.20;;;;;;4995423;28;20026;-72
2021/10/31 01:34:01;;;;;;;28.50;24.37;;;;;;;;;;4996013;28;20052;-72
2021/10/31 01:36:51;;;;;;;27.27;23.95;;;12.60;92.40;;;;;;4996288;28;20531;-72
2021/10/31 01:39:21;;;;;;;29.75;22.55;;;12.30;92.90;;;;;;4996290;28;20031;-72
2021/10/31 01:41:59;;;;;;;29.40;23.35;;;12.20;93.60;;;;;;5011568;28;20430;-72
2021/10/31 01:44:40;;;;;;;27.88;21.60;;;12.20;93.90;;;;;;4996659;28;20038;-72
2021/10/31 01:47:24;;;;;;;25.80;21.30;;;;;;;;;;4996627;28;20081;-72
2021/10/31 01:49:55;;;;;;;25.50;21.40;;;12.10;93.50;;;;;;4996423;28;20062;-72
2021/10/31 01:52:30;;;;;;;26.70;21.67;;;12.20;93.40;;;;;;4995095;28;20105;-72
2021/10/31 01:55:00;;;;;;;28.10;20.85;;;12.20;93.30;;;;;;4996126;28;20061;-72
2021/10/31 01:57:27;;;;;;;28.45;21.50;;;;;;;;;;4995981;28;20026;-72
2021/10/31 02:00:04;;;;;;;25.35;20.23;;;12.00;92.80;;;;;;4992482;28;20025;-73
2021/10/31 02:02:33;;;;;;;25.20;20.70;;;11.90;79.50;;;;;;4993264;28;20038;-72
2021/10/31 02:05:00;;;;;;;22.45;19.17;;;12.00;79.40;;;;;;4994792;28;20085;-72
2021/10/31 02:07:27;;;;;;;22.33;18.67;;;12.00;79.30;;;;;;4995552;28;20173;-72
2021/10/31 02:09:54;;;;;;;25.23;19.45;;;12.00;79.20;;;;;;4996008;28;20403;-72
2021/10/31 02:12:21;;;;;;;27.15;19.65;;;12.00;79.20;;;;;;4993166;28;20030;-72
2021/10/31 02:14:48;;;;;;;24.80;20.70;;;11.90;79.00;;;;;;4993919;28;20018;-71
2021/10/31 02:17:19;;;;;;;27.75;18.77;;;11.90;88.10;;;;;;4995513;28;20030;-72
2021/10/31 02:19:46;;;;;;;25.08;20.52;;;12.00;83.80;;;;;;4995711;28;20034;-72
2021/10/31 02:22:29;;;;;;;24.23;20.25;;;12.00;92.50;;;;;;4995426;28;20378;-72
2021/10/31 02:24:56;;;;;;;23.67;19.52;;;12.00;91.80;;;;;;4995640;28;20038;-72
2021/10/31 02:27:23;;;;;;;24.92;19.27;;;12.00;91.30;;;;;;4995227;28;20029;-72
2021/10/31 02:29:54;;;;;;;27.83;19.40;;;12.00;92.90;;;;;;4995345;28;20030;-72
2021/10/31 02:32:24;;;;;;;26.13;19.42;;;12.00;92.30;;;;;;4995578;28;20041;-72
2021/10/31 02:34:51;;;;;;;24.95;19.10;;;12.10;92.70;;;;;;4994149;28;20029;-72
2021/10/31 02:37:17;;;;;;;28.58;19.92;;;12.10;92.80;;;;;;4995270;28;20024;-72
2021/10/31 02:39:43;;;;;;;32.67;21.17;;;12.10;91.50;;;;;;4995414;28;20041;-72
2021/10/31 02:42:09;;;;;;;31.52;21.65;;;12.10;91.30;;;;;;4995508;28;20054;-72
2021/10/31 02:44:34;;;;;;;29.92;22.85;;;12.10;91.00;;;;;;4995266;28;20419;-72
2021/10/31 02:47:01;;;;;;;31.95;27.05;;;12.10;90.70;;;;;;4995129;28;20069;-72
2021/10/31 02:49:28;;;;;;;34.92;28.35;;;12.10;90.80;;;;;;4994883;28;20525;-72
2021/10/31 02:52:12;;;;;;;31.70;27.27;;;12.10;91.40;;;;;;4992443;28;20032;-72
2021/10/31 02:54:59;;;;;;;30.80;26.73;;;12.10;91.80;;;;;;4993118;28;20023;-72
2021/10/31 02:57:42;;;;;;;32.22;26.77;;;12.10;91.60;;;;;;4994018;28;20038;-72
2021/10/31 03:00:12;;;;;;;31.90;25.77;;;12.10;90.80;;;;;;4995088;28;20105;-72
2021/10/31 03:02:38;;;;;;;30.88;26.02;;;12.00;90.70;;;;;;4994643;28;20030;-72
2021/10/31 03:05:04;;;;;;;31.40;24.80;;;12.10;91.30;;;;;;4994747;28;20109;-71
2021/10/31 03:07:31;;;;;;;28.75;25.15;;;;;;;;;;4995120;28;20372;-72
2021/10/31 03:09:56;;;;;;;28.40;25.20;;;11.90;78.30;;;;;;4994636;28;20106;-72
2021/10/31 03:12:22;;;;;;;32.35;24.48;;;11.80;79.20;;;;;;4994527;28;20548;-72
2021/10/31 03:14:48;;;;;;;31.92;25.77;;;11.80;79.60;;;;;;4994836;28;20422;-72
2021/10/31 03:17:14;;;;;;;30.50;27.17;;;11.80;79.70;;;;;;4994800;28;20049;-72
2021/10/31 03:19:40;;;;;;;28.63;25.40;;;11.80;79.80;;;;;;4994901;28;20034;-72
2021/10/31 03:22:07;;;;;;;27.55;24.55;;;11.80;79.90;;;;;;4994545;28;20037;-72
2021/10/31 03:24:33;;;;;;;31.80;25.45;;;11.70;79.60;;;;;;4993452;28;20386;-72
2021/10/31 03:26:59;;;;;;;28.15;25.15;;;11.60;79.80;;;;;;4994082;28;20539;-72
2021/10/31 03:29:25;;;;;;;31.33;26.40;;;11.60;80.30;;;;;;4994291;28;20113;-72
2021/10/31 03:31:54;;;;;;;28.80;25.52;;;11.50;80.60;;;;;;4993166;28;20442;-72
2021/10/31 03:34:20;;;;;;;31.50;25.60;;;11.50;80.70;;;;;;4992965;28;20040;-72
2021/10/31 03:36:47;;;;;;;29.58;26.27;;;11.40;80.70;;;;;;4991416;28;20037;-73
2021/10/31 03:39:14;;;;;;;30.05;24.05;;;11.50;80.80;;;;;;4992859;28;20102;-72
2021/10/31 03:41:40;;;;;;;27.17;23.77;;;11.50;80.60;;;;;;4992438;28;20031;-72
2021/10/31 03:44:06;;;;;;;32.13;26.42;;;11.50;80.30;;;;;;4993977;28;20030;-72
2021/10/31 03:46:32;;;;;;;30.60;26.00;;;11.60;80.20;;;;;;4994073;28;20494;-72
2021/10/31 03:48:58;;;;;;;30.70;25.73;;;11.60;80.10;;;;;;4993712;28;20038;-72
2021/10/31 03:51:24;;;;;;;28.83;24.92;;;11.60;79.90;;;;;;4994288;28;20029;-72
2021/10/31 03:53:50;;;;;;;29.77;25.08;;;11.60;79.80;;;;;;4993829;28;20105;-72
2021/10/31 03:56:16;;;;;;;25.77;22.73;;;11.60;79.70;;;;;;4993826;28;20031;-72
2021/10/31 03:58:41;;;;;;;27.83;24.83;;;11.50;79.70;;;;;;4993609;28;20124;-72
2021/10/31 04:01:07;;;;;;;31.63;26.58;;;11.50;79.90;;;;;;4994087;28;20019;-72
2021/10/31 04:03:33;;;;;;;27.30;24.40;;;11.50;80.10;;;;;;4993635;28;20030;-72
2021/10/31 04:05:58;;;;;;;30.30;25.42;;;11.40;80.50;;;;;;4994037;28;20057;-72
2021/10/31 04:08:24;;;;;;;27.95;24.15;;;11.50;89.30;;;;;;4993837;28;20161;-73
2021/10/31 04:10:50;;;;;;;26.95;24.00;;;11.50;93.70;;;;;;4993797;28;20487;-72
2021/10/31 04:13:16;;;;;;;30.67;24.45;;;;;;;;;;4993832;28;20018;-72
2021/10/31 04:15:42;;;;;;;31.48;26.20;;;;;;;;;;4993121;28;20541;-72
2021/10/31 04:18:08;;;;;;;27.05;24.00;;;;;;;;;;4993797;28;20038;-72
2021/10/31 04:20:34;;;;;;;29.00;24.05;;;;;;;;;;4993596;28;20038;-72
2021/10/31 04:23:00;;;;;;;28.83;23.05;;;;;;;;;;4993630;28;20118;-73
2021/10/31 04:25:26;;;;;;;28.50;22.83;;;11.50;96.80;;;;;;4993701;28;20105;-72
2021/10/31 04:27:52;;;;;;;27.50;23.13;;;11.40;95.50;;;;;;4993869;28;20109;-71
2021/10/31 04:30:17;;;;;;;28.92;24.23;;;11.40;95.60;;;;;;4993664;28;20084;-71
2021/10/31 04:32:43;;;;;;;27.33;22.58;;;11.40;87.30;;;;;;4993462;28;20101;-71
2021/10/31 04:35:10;;;;;;;30.25;24.20;;;;;;;;;;4993361;28;20034;-71
2021/10/31 04:37:38;;;;;;;27.67;22.73;;;11.30;94.90;;;;;;4993280;28;20138;-73
2021/10/31 04:40:07;;;;;;;29.30;23.65;;;11.10;79.70;;;;;;4993260;28;20026;-72
2021/10/31 04:42:34;;;;;;;27.67;22.48;;;;;;;;;;4993406;28;20049;-72
2021/10/31 04:45:00;;;;;;;32.20;24.52;;;11.10;99.90;;;;;;4993466;28;20054;-72
2021/10/31 04:47:26;;;;;;;26.77;22.65;;;11.30;90.50;;;;;;4993210;28;20384;-72
2021/10/31 04:49:52;;;;;;;30.52;24.23;;;11.20;90.30;;;;;;4993323;28;20070;-72
2021/10/31 04:52:18;;;;;;;32.53;25.45;;;11.30;87.00;;;;;;4993182;28;20092;-72
2021/10/31 04:54:43;;;;;;;27.55;23.85;;;11.30;87.70;;;;;;4992320;28;20475;-72
2021/10/31 04:57:09;;;;;;;31.08;24.48;;;11.30;87.80;;;;;;4991774;28;20034;-72
2021/10/31 04:59:35;;;;;;;30.67;24.83;;;11.30;88.90;;;;;;4992471;28;20034;-72
2021/10/31 05:02:00;;;;;;;29.45;24.45;;;11.30;85.70;;;;;;4993125;28;20030;-72
2021/10/31 05:04:26;;;;;;;29.05;24.35;;;11.30;84.20;;;;;;4992943;28;20053;-73
2021/10/31 05:06:52;;;;;;;29.73;24.88;;;11.40;83.70;;;;;;4993445;28;20034;-72
2021/10/31 05:09:18;;;;;;;31.33;25.15;;;11.40;84.10;;;;;;4992992;28;20391;-72
2021/10/31 05:11:43;;;;;;;28.45;25.33;;;11.40;84.00;;;;;;4993324;28;20027;-72
2021/10/31 05:14:09;;;;;;;29.00;25.05;;;11.50;84.40;;;;;;4993051;28;20505;-72
2021/10/31 05:16:37;;;;;;;30.30;25.50;;;11.50;83.70;;;;;;4992948;28;20046;-72
2021/10/31 05:19:04;;;;;;;31.13;25.88;;;11.50;83.30;;;;;;4993180;28;20026;-72
2021/10/31 05:21:29;;;;;;;33.00;26.02;;;11.50;83.20;;;;;;4993257;28;20503;-71
2021/10/31 05:23:55;;;;;;;27.83;24.70;;;11.50;83.40;;;;;;4993086;28;20019;-72
2021/10/31 05:26:21;;;;;;;31.00;26.25;;;11.50;84.10;;;;;;4994256;28;20386;-72
2021/10/31 05:28:46;;;;;;;31.45;25.45;;;11.50;83.40;;;;;;4995900;28;20429;-71
2021/10/31 05:31:12;;;;;;;31.13;25.38;;;11.50;83.50;;;;;;4994837;28;20454;-72
2021/10/31 05:33:38;;;;;;;31.83;24.85;;;11.50;83.50;;;;;;4994982;28;20034;-72
2021/10/31 05:36:04;;;;;;;33.33;25.90;;;11.50;83.50;;;;;;4995272;28;20029;-72
2021/10/31 05:38:30;;;;;;;29.02;24.55;;;11.50;83.50;;;;;;4996196;28;20431;-72
2021/10/31 05:40:55;;;;;;;29.92;24.05;;;11.60;83.70;;;;;;4996435;28;20065;-72
2021/10/31 05:43:21;;;;;;;28.95;24.25;;;11.60;84.20;;;;;;4996295;28;20113;-72
2021/10/31 05:45:47;;;;;;;31.23;24.27;;;11.60;84.60;;;;;;4996426;28;20026;-73
2021/10/31 05:48:13;;;;;;;29.20;23.42;;;11.60;84.60;;;;;;4996451;28;20030;-72
2021/10/31 05:50:40;;;;;;;28.25;23.10;;;11.60;84.40;;;;;;4994943;28;20117;-73
2021/10/31 05:53:06;;;;;;;32.67;23.50;;;11.60;84.30;;;;;;4996489;28;20026;-72
2021/10/31 05:55:33;;;;;;;30.23;23.25;;;11.70;84.50;;;;;;4996305;28;20030;-73
2021/10/31 05:57:58;;;;;;;32.42;22.50;;;11.70;84.70;;;;;;4995981;28;20031;-72
2021/10/31 06:00:24;;;;;;;33.17;23.77;;;11.70;85.10;;;;;;4996144;28;20041;-72
2021/10/31 06:02:50;;;;;;;30.23;23.52;;;11.60;85.90;;;;;;4996022;28;20030;-73
2021/10/31 06:05:16;;;;;;;28.70;23.77;;;11.70;86.70;;;;;;4995814;28;20411;-72
2021/10/31 06:07:43;;;;;;;31.77;22.60;;;11.60;88.30;;;;;;4994680;28;20108;-72
2021/10/31 06:10:12;;;;;;;25.02;22.40;;;11.70;87.40;;;;;;4996094;28;20557;-72
2021/10/31 06:12:46;;;;;;;25.77;22.77;;;11.70;87.20;;;;;;4995762;28;20499;-72
2021/10/31 06:15:15;;;;;;;29.77;23.45;;;11.70;87.50;;;;;;4994546;28;20299;-73
2021/10/31 06:17:41;;;;;;;26.00;23.02;;;11.70;87.30;;;;;;4995839;28;20468;-72
2021/10/31 06:20:09;;;;;;;25.60;22.73;;;11.70;88.40;;;;;;4995550;28;20089;-77
2021/10/31 06:22:34;;;;;;;26.80;23.95;;;11.70;88.50;;;;;;4993212;28;20026;-76
2021/10/31 06:25:00;;;;;;;26.38;23.60;;;11.70;89.20;;;;;;4991356;28;20538;-73
2021/10/31 06:27:26;;;;;;;26.13;22.15;;;11.70;90.10;;;;;;4993771;28;20056;-74
2021/10/31 06:29:51;;;;;;;29.05;23.55;;;11.70;90.50;;;;;;4992998;28;20077;-73
2021/10/31 06:32:17;;;;;;;24.92;22.27;;;11.70;89.90;;;;;;4992721;28;20027;-72
2021/10/31 06:34:42;;;;;;;27.73;23.35;;;11.80;89.20;;;;;;4992266;28;20368;-73
2021/10/31 06:37:08;;;;;;;30.13;24.65;;;11.80;90.60;;;;;;4995071;28;20409;-72
2021/10/31 06:39:34;;;;;;;32.85;25.98;;;11.80;86.90;;;;;;4994654;28;20526;-72
2021/10/31 06:41:59;;;;;;;32.17;26.35;;;11.80;85.00;;;;;;4995591;28;20031;-72
2021/10/31 06:44:25;;;;;;;32.60;26.73;;;11.80;84.80;;;;;;4994787;28;20039;-72
2021/10/31 06:46:52;;;;;;;33.03;26.48;;;11.80;85.10;;;;;;4994982;28;20097;-73
2021/10/31 06:49:18;;;;;;;32.13;26.48;;;11.80;84.90;;;;;;4994598;28;20483;-72
2021/10/31 06:51:44;;;;;;;30.55;25.77;;;11.80;84.90;;;;;;4994061;28;20073;-73
2021/10/31 06:54:10;;;;;;;30.48;26.92;;;11.80;84.60;;;;;;4994951;28;20030;-72
2021/10/31 06:56:36;;;;;;;32.72;27.10;;;11.80;84.60;;;;;;4995032;28;20030;-73
2021/10/31 06:59:02;;;;;;;37.05;27.85;;;11.80;84.30;;;;;;4994927;28;20023;-73
2021/10/31 07:01:28;;;;;;;32.20;26.98;;;11.80;84.30;;;;;;4995054;28;20026;-73
2021/10/31 07:03:54;;;;;;;33.90;26.00;;;11.80;84.20;;;;;;4994734;28;20146;-72
2021/10/31 07:06:20;;;;;;;33.58;27.80;;;11.80;84.20;;;;;;4994930;28;20033;-72
2021/10/31 07:08:45;;;;;;;35.55;27.67;;;11.80;84.10;;;;;;4994743;28;20039;-72
2021/10/31 07:11:11;;;;;;;42.63;28.20;;;11.90;83.70;;;;;;4994871;28;20050;-72
2021/10/31 07:13:38;;;;;;;35.20;29.02;;;11.90;83.20;;;;;;4994583;28;20398;-72
2021/10/31 07:16:04;;;;;;;39.97;28.35;;;11.90;82.10;;;;;;4994972;28;20023;-72
2021/10/31 07:18:30;;;;;;;33.05;26.27;;;11.90;81.40;;;;;;4994891;28;20110;-72
2021/10/31 07:20:56;;;;;;;35.40;26.13;;;11.90;81.20;;;;;;4992973;28;20025;-72
2021/10/31 07:23:22;;;;;;;29.75;26.42;;;11.90;81.20;;;;;;4997824;28;20104;-72
2021/10/31 07:25:47;;;;;;;31.35;26.33;;;12.10;91.30;;;;;;5013042;28;20022;-73
2021/10/31 07:28:14;;;;;;;33.05;26.33;;;;;;;;;;5009472;28;20053;-72
2021/10/31 07:30:39;;;;;;;32.33;27.00;;;13.20;91.90;;;;;;5012279;28;20025;-72
2021/10/31 07:33:05;;;;;;;30.95;26.45;;;12.10;92.40;;;;;;5013548;28;20414;-72
2021/10/31 07:35:32;;;;;;;31.85;26.73;;;12.00;81.50;;;;;;5000098;28;20053;-72
2021/10/31 07:37:58;;;;;;;32.88;27.88;;;;;;;;;;5000986;28;20108;-72
2021/10/31 07:40:26;;;;;;;31.88;27.48;;;;;;;;;;5013613;28;20390;-73
2021/10/31 07:42:52;;;;;;;32.97;28.10;;;12.10;81.20;;;;;;5013186;28;20053;-72
2021/10/31 07:45:18;;;;;;;38.95;29.10;;;12.20;82.60;;;;;;5013171;28;20030;-72
2021/10/31 07:47:44;;;;;;;40.10;29.10;;;12.30;85.60;;;;;;5013326;28;20038;-73
2021/10/31 07:50:09;;;;;;;33.60;28.70;;;12.40;90.70;;;;;;5013253;28;20075;-72
2021/10/31 07:52:41;;;;;;;34.08;29.65;;;12.20;83.00;;;;;;5013641;28;20030;-73
2021/10/31 07:55:09;;;;;;;34.60;28.58;;;12.30;83.30;;;;;;5012148;28;20037;-73
2021/10/31 07:57:35;;;;;;;35.28;28.13;;;12.30;82.90;;;;;;5013158;28;20017;-73
2021/10/31 08:00:01;;;;;;;36.08;28.40;;;12.50;88.00;;;;;;5013317;28;20022;-72
2021/10/31 08:02:27;;;;;;;39.47;28.50;;;;;;;;;;5013515;28;20026;-73
2021/10/31 08:04:53;;;;;;;31.90;26.67;;;;;;;;;;5013301;28;20522;-74
2021/10/31 08:07:26;;;;;;;35.38;27.30;;;;;;;;;;5012046;28;20111;-73
2021/10/31 08:09:52;;;;;;;36.42;28.70;;;12.60;84.20;;;;;;5009055;28;20038;-73
2021/10/31 08:12:18;;;;;;;30.02;25.60;;;12.70;85.30;;;;;;5010656;28;20045;-73
2021/10/31 08:14:44;;;;;;;35.63;26.95;;;;;;;;;;5012748;28;20356;-73
2021/10/31 08:17:09;;;;;;;33.38;24.80;;;12.60;81.30;;;;;;5013531;28;20580;-73
2021/10/31 08:19:35;;;;;;;32.17;24.95;;;12.70;81.10;;;;;;5013033;28;20109;-73
2021/10/31 08:22:00;;;;;;;31.60;25.83;;;12.70;80.20;;;;;;5013362;28;20029;-74
2021/10/31 08:24:26;;;;;;;31.95;25.40;;;12.80;80.30;;;;;;5012125;28;20389;-72
2021/10/31 08:26:52;;;;;;;29.85;25.65;;;12.80;80.10;;;;;;5011133;28;20090;-80
2021/10/31 08:29:20;;;;;;;31.15;25.05;;;12.90;80.00;;;;;;5010256;28;20041;-73
2021/10/31 08:31:49;;;;;;;34.60;25.70;;;12.90;80.70;;;;;;5010574;28;20033;-81
2021/10/31 08:34:16;;;;;;;37.55;26.00;;;13.00;80.10;;;;;;5013316;28;20080;-81
2021/10/31 08:36:42;;;;;;;32.47;25.38;;;13.00;80.20;;;;;;5013163;28;20022;-75
2021/10/31 08:39:07;;;;;;;29.92;25.08;;;13.00;79.60;;;;;;5012846;28;20065;-76
2021/10/31 08:41:34;;;;;;;27.67;22.92;;;13.10;79.20;;;;;;5012516;28;20061;-81
2021/10/31 08:44:01;;;;;;;29.70;24.52;;;13.20;78.70;;;;;;5013311;28;20109;-86
2021/10/31 08:46:29;;;;;;;27.10;23.83;;;13.20;78.40;;;;;;5013329;28;20022;-76
2021/10/31 08:48:54;;;;;;;28.95;23.60;;;13.30;78.40;;;;;;5010036;28;20088;-76
2021/10/31 08:51:22;;;;;;;27.83;24.30;;;13.30;78.40;;;;;;5009966;28;20105;-78
2021/10/31 08:53:48;;;;;;;31.35;23.83;;;13.40;78.30;;;;;;5010627;28;20076;-75
2021/10/31 08:56:14;;;;;;;34.75;22.70;;;13.50;78.40;;;;;;5012691;28;20018;-76
2021/10/31 08:58:40;;;;;;;31.42;23.85;;;13.50;78.20;;;;;;5012751;28;20068;-76
2021/10/31 09:01:06;;;;;;;27.58;23.27;;;13.60;78.20;;;;;;5012356;28;20569;-77
2021/10/31 09:03:32;;;;;;;29.42;22.65;;;13.70;80.20;;;;;;5016865;28;20107;-76
2021/10/31 09:05:58;;;;;;;29.55;24.55;;;13.80;80.30;;;;;;5016487;28;20050;-76
2021/10/31 09:08:23;;;;;;;29.42;24.02;;;13.70;77.90;;;;;;5016539;28;20037;-76
2021/10/31 09:10:52;;;;;;;28.30;23.88;;;13.90;86.70;;;;;;5016087;28;20037;-75
2021/10/31 09:13:18;;;;;;;26.95;24.05;;;14.00;86.50;;;;;;5016002;28;20474;-77
2021/10/31 09:15:44;;;;;;;28.17;23.73;;;14.00;82.00;;;;;;5016049;28;20049;-77
2021/10/31 09:18:10;;;;;;;29.92;24.27;;;13.90;77.30;;;;;;5014284;28;20475;-76
2021/10/31 09:20:36;;;;;;;30.30;24.55;;;14.00;77.30;;;;;;5014769;28;20058;-76
2021/10/31 09:23:05;;;;;;;31.08;26.08;;;14.00;77.00;;;;;;5013849;28;20490;-75
2021/10/31 09:25:32;;;;;;;30.27;25.25;;;14.00;77.00;;;;;;5014963;28;20021;-76
2021/10/31 09:27:59;;;;;;;29.08;24.20;;;14.10;77.40;;;;;;5013963;28;20029;-76
2021/10/31 09:30:26;;;;;;;28.48;24.23;;;14.10;77.40;;;;;;5016255;28;20084;-76
2021/10/31 09:32:53;;;;;;;30.60;24.73;;;14.30;87.20;;;;;;5016068;28;20014;-75
2021/10/31 09:35:24;;;;;;;27.90;24.27;;;14.40;91.00;;;;;;5015255;28;20513;-76
2021/10/31 09:37:56;;;;;;;31.48;25.00;;;14.40;92.60;;;;;;5015744;28;20076;-76
2021/10/31 09:40:23;;;;;;;27.63;23.33;;;14.50;92.20;;;;;;5016147;28;20045;-76
2021/10/31 09:42:51;;;;;;;28.35;25.13;;;14.50;90.60;;;;;;5016362;28;20045;-76
2021/10/31 09:45:19;;;;;;;27.88;24.98;;;14.60;88.90;;;;;;5015911;28;20022;-76
2021/10/31 09:47:51;;;;;;;28.05;25.05;;;14.70;83.70;;;;;;5016054;28;20057;-76
2021/10/31 09:50:17;;;;;;;28.15;24.08;;;14.80;89.60;;;;;;5016180;28;20034;-76
2021/10/31 09:52:43;;;;;;;27.65;24.45;;;14.80;92.70;;;;;;5016188;28;20447;-77
2021/10/31 09:55:10;;;;;;;26.60;23.67;;;14.90;92.70;;;;;;5015952;28;20105;-76
2021/10/31 09:57:36;;;;;;;28.05;23.10;;;14.90;87.10;;;;;;5015449;28;20352;-75
2021/10/31 10:00:03;;;;;;;26.48;23.58;;;15.00;91.70;;;;;;5011921;28;20032;-75
2021/10/31 10:02:50;;;;;;;30.17;23.55;;;14.90;76.00;;;;;;5013039;28;20076;-76
2021/10/31 10:05:27;;;;;;;30.92;24.40;;;15.00;75.50;;;;;;5014696;28;20042;-76
2021/10/31 10:08:15;;;;;;;25.80;23.00;;;15.00;75.00;;;;;;5015725;28;20030;-77
2021/10/31 10:10:51;;;;;;;25.25;22.55;;;15.10;74.80;;;;;;5015748;28;20030;-76
2021/10/31 10:13:19;;;;;;;31.08;25.67;;;15.20;74.00;;;;;;5014299;28;20019;-77
2021/10/31 10:15:48;;;;;;;30.98;25.60;;;15.20;71.70;;;;;;5014075;28;20096;-76
2021/10/31 10:18:32;;;;;;;30.45;25.08;;;15.20;70.90;;;;;;5015621;28;20054;-76
2021/10/31 10:21:14;;;;;;;29.33;24.55;;;15.20;70.70;;;;;;5015360;28;20026;-76
2021/10/31 10:23:56;;;;;;;41.40;29.15;;;15.20;70.40;;;;;;5015458;28;20438;-76
2021/10/31 10:26:38;;;;;;;35.50;28.85;;;15.30;70.40;;;;;;5015258;28;20060;-76
2021/10/31 10:29:12;;;;;;;33.95;28.33;;;15.30;70.50;;;;;;5014901;28;20034;-76
2021/10/31 10:31:45;;;;;;;37.67;28.40;;;15.30;70.60;;;;;;5015342;28;20025;-76
2021/10/31 10:34:15;;;;;;;35.67;29.40;;;15.30;70.40;;;;;;5015285;28;20474;-76
2021/10/31 10:36:49;;;;;;;36.55;27.63;;;15.40;70.50;;;;;;5015095;28;20022;-76
2021/10/31 10:39:18;;;;;;;35.63;29.80;;;15.40;70.40;;;;;;5015160;28;20505;-77
2021/10/31 10:41:53;;;;;;;41.42;30.55;;;15.40;70.50;;;;;;5015408;28;20026;-76
2021/10/31 10:44:25;;;;;;;34.22;28.35;;;15.40;70.70;;;;;;5015160;28;20026;-77
2021/10/31 10:46:59;;;;;;;34.92;26.30;;;15.50;70.50;;;;;;5015508;28;20033;-76
2021/10/31 10:49:27;;;;;;;34.97;29.13;;;15.60;70.50;;;;;;5014724;28;20026;-76
2021/10/31 10:52:09;;;;;;;33.60;27.27;;;15.80;78.30;;;;;;5015073;28;20363;-76
2021/10/31 10:54:37;;;;;;;34.08;29.42;;;15.80;77.90;;;;;;5015070;28;20076;-76
2021/10/31 10:57:06;;;;;;;41.95;31.30;;;15.90;71.40;;;;;;5014649;28;20065;-76
2021/10/31 10:59:33;;;;;;;37.85;28.85;;;16.00;71.40;;;;;;5014992;28;20030;-76
2021/10/31 11:02:14;;;;;;;31.02;27.05;;;16.00;71.40;;;;;;5015271;28;20026;-76
2021/10/31 11:04:41;;;;;;;32.08;26.30;;;16.00;70.70;;;;;;5014885;28;20050;-76
2021/10/31 11:07:08;;;;;;;35.72;28.50;;;16.10;84.60;;;;;;5014857;28;20517;-77
2021/10/31 11:09:44;;;;;;;38.47;29.15;;;16.10;84.30;;;;;;5014470;28;20116;-76
2021/10/31 11:12:33;;;;;;;31.52;26.50;;;16.20;77.40;;;;;;5014708;28;20025;-76
2021/10/31 11:15:20;;;;;;;37.83;28.67;;;16.30;81.50;;;;;;5014701;28;20471;-76
2021/10/31 11:17:49;;;;;;;37.60;30.33;;;16.30;80.70;;;;;;5014216;28;20046;-76
2021/10/31 11:20:20;;;;;;;41.53;29.83;;;16.30;80.40;;;;;;5014567;28;20022;-76
2021/10/31 11:22:49;;;;;;;38.25;28.48;;;16.40;84.00;;;;;;5014609;28;20080;-76
2021/10/31 11:25:18;;;;;;;36.67;29.50;;;16.40;88.30;;;;;;5013049;28;20033;-76
2021/10/31 11:27:45;;;;;;;34.10;28.15;;;16.40;86.50;;;;;;5014691;28;20026;-76
2021/10/31 11:30:12;;;;;;;39.22;30.15;;;16.50;87.10;;;;;;5014675;28;20036;-76
2021/10/31 11:32:40;;;;;;;39.58;31.27;;;16.50;86.60;;;;;;5013922;28;20026;-76
2021/10/31 11:35:07;;;;;;;34.83;29.70;;;16.50;87.30;;;;;;5013044;28;20120;-77
2021/10/31 11:37:46;;;;;;;37.65;29.00;;;16.50;86.70;;;;;;5014861;28;20022;-77
2021/10/31 11:40:13;;;;;;;33.85;27.45;;;16.50;87.50;;;;;;5015042;28;20026;-77
2021/10/31 11:42:45;;;;;;;34.20;27.80;;;16.60;88.70;;;;;;5014129;28;20026;-75
2021/10/31 11:45:15;;;;;;;30.83;26.42;;;16.60;90.20;;;;;;5014371;28;20026;-76
2021/10/31 11:47:44;;;;;;;33.42;25.58;;;16.60;88.60;;;;;;5013906;28;20018;-76
2021/10/31 11:50:16;;;;;;;32.33;24.48;;;16.70;89.20;;;;;;5014109;28;20092;-77
2021/10/31 11:52:49;;;;;;;31.75;26.00;;;16.70;79.80;;;;;;5013903;28;20072;-77
2021/10/31 11:55:30;;;;;;;30.95;25.30;;;16.70;78.30;;;;;;5014001;28;20033;-76
2021/10/31 11:58:29;;;;;;;31.40;24.92;;;16.70;79.20;;;;;;5012920;28;20033;-76
2021/10/31 12:00:57;;;;;;;31.55;25.90;;;16.80;79.80;;;;;;5010729;28;20502;-76
2021/10/31 12:03:46;;;;;;;35.15;27.80;;;16.80;79.90;;;;;;5011652;28;20080;-76
2021/10/31 12:06:15;;;;;;;31.70;26.08;;;16.70;79.90;;;;;;5012333;28;20041;-76
2021/10/31 12:08:47;;;;;;;33.53;28.10;;;16.70;80.80;;;;;;5012304;28;20376;-77
2021/10/31 12:11:14;;;;;;;35.42;27.73;;;16.80;80.90;;;;;;5013858;28;20029;-76
2021/10/31 12:13:51;;;;;;;31.50;27.42;;;16.80;81.40;;;;;;5013992;28;20475;-76
2021/10/31 12:16:18;;;;;;;34.65;27.13;;;16.70;81.20;;;;;;5013597;28;20524;-76
2021/10/31 12:19:07;;;;;;;36.28;28.13;;;16.70;80.70;;;;;;5013853;28;20425;-76
2021/10/31 12:21:37;;;;;;;36.85;28.13;;;16.80;79.50;;;;;;5013354;28;20057;-77
2021/10/31 12:24:05;;;;;;;32.95;28.48;;;16.80;79.10;;;;;;5010825;28;20110;-76
2021/10/31 12:27:07;;;;;;;34.08;28.15;;;16.70;79.20;;;;;;5010476;28;20022;-77
2021/10/31 12:29:34;;;;;;;32.88;27.60;;;16.80;80.70;;;;;;5011336;28;20034;-77
2021/10/31 12:32:00;;;;;;;37.72;28.55;;;16.80;81.50;;;;;;5012976;28;20022;-75
2021/10/31 12:34:32;;;;;;;36.50;30.25;;;16.80;82.10;;;;;;5013198;28;20112;-77
2021/10/31 12:36:58;;;;;;;36.60;30.33;;;16.80;81.30;;;;;;5012440;28;20022;-76
2021/10/31 12:39:28;;;;;;;36.47;29.17;;;16.80;80.70;;;;;;5013077;28;20151;-77
2021/10/31 12:42:13;;;;;;;38.60;29.00;;;16.80;80.50;;;;;;5013503;28;20113;-77